createdAt,value
2022-11-20T00:01:40.768Z,18.33
2022-11-20T00:06:42.146Z,22.67
2022-11-20T00:11:43.528Z,20.67
2022-11-20T00:16:44.866Z,18.25
2022-11-20T00:21:46.245Z,18.20
2022-11-20T00:26:47.667Z,20.38
2022-11-20T00:31:49.011Z,20.90
2022-11-20T00:36:50.346Z,18.77
2022-11-20T00:41:51.697Z,21.60
2022-11-20T00:46:53.064Z,18.00
2022-11-20T00:51:54.498Z,22.10
2022-11-20T00:56:56.016Z,20.60
2022-11-20T01:01:57.337Z,18.48
2022-11-20T01:06:58.799Z,20.85
2022-11-20T01:12:01.128Z,21.10
2022-11-20T01:17:02.480Z,17.85
2022-11-20T01:22:03.828Z,20.83
2022-11-20T01:27:05.129Z,21.45
2022-11-20T01:32:06.522Z,20.48
2022-11-20T01:37:07.902Z,20.70
2022-11-20T01:42:27.990Z,22.00
2022-11-20T01:47:41.425Z,26.70
2022-11-20T01:52:53.528Z,24.63
2022-11-20T01:57:55.407Z,22.00
2022-11-20T02:03:01.530Z,21.23
2022-11-20T02:08:05.340Z,20.52
2022-11-20T02:13:25.772Z,22.48
2022-11-20T02:18:27.621Z,22.17
2022-11-20T02:23:37.459Z,22.40
2022-11-20T02:28:38.956Z,23.08
2022-11-20T02:33:40.299Z,22.67
2022-11-20T02:38:42.638Z,24.40
2022-11-20T02:43:44.011Z,24.80
2022-11-20T02:48:45.508Z,23.75
2022-11-20T02:53:53.094Z,22.13
2022-11-20T03:03:58.699Z,19.90
2022-11-20T03:09:00.229Z,22.17
2022-11-20T03:14:06.046Z,19.77
2022-11-20T03:19:07.900Z,21.17
2022-11-20T03:24:09.831Z,22.23
2022-11-20T03:29:11.625Z,23.00
2022-11-20T03:34:13.105Z,20.55
2022-11-20T03:39:14.453Z,18.05
2022-11-20T03:44:15.884Z,19.30
2022-11-20T03:49:17.216Z,20.90
2022-11-20T03:54:18.576Z,22.17
2022-11-20T03:59:20.173Z,23.92
2022-11-20T04:04:21.811Z,23.75
2022-11-20T04:09:23.397Z,24.70
2022-11-20T04:14:25.062Z,22.05
2022-11-20T04:19:26.450Z,25.95
2022-11-20T04:24:27.822Z,21.73
2022-11-20T04:29:29.241Z,21.23
2022-11-20T04:34:30.874Z,20.70
2022-11-20T04:39:32.288Z,21.95
2022-11-20T04:44:33.650Z,22.17
2022-11-20T04:49:35.063Z,22.10
2022-11-20T04:54:36.439Z,21.92
2022-11-20T04:59:37.777Z,22.85
2022-11-20T05:04:39.290Z,22.42
2022-11-20T05:09:40.641Z,25.73
2022-11-20T05:14:41.976Z,22.15
2022-11-20T05:19:43.529Z,21.70
2022-11-20T05:30:02.573Z,19.47
2022-11-20T05:35:04.143Z,23.27
2022-11-20T05:40:06.204Z,26.30
2022-11-20T05:45:08.239Z,22.02
2022-11-20T05:50:09.743Z,20.88
2022-11-20T05:55:11.191Z,21.05
2022-11-20T06:00:13.502Z,21.33
2022-11-20T06:05:15.043Z,21.20
2022-11-20T06:10:16.544Z,23.42
2022-11-20T06:15:17.882Z,23.77
2022-11-20T06:20:21.812Z,24.83
2022-11-20T06:25:23.215Z,22.20
2022-11-20T06:30:24.584Z,23.55
2022-11-20T06:35:25.979Z,28.13
2022-11-20T06:40:27.344Z,27.70
2022-11-20T06:45:28.690Z,28.95
2022-11-20T06:50:30.167Z,27.25
2022-11-20T06:55:32.678Z,28.42
2022-11-20T07:00:34.122Z,27.90
2022-11-20T07:05:36.536Z,30.08
2022-11-20T07:10:37.997Z,31.75
2022-11-20T07:15:39.421Z,30.85
2022-11-20T07:20:40.809Z,33.08
2022-11-20T07:25:42.292Z,39.90
2022-11-20T07:30:43.634Z,37.13
2022-11-20T07:35:45.002Z,41.65
2022-11-20T07:40:46.354Z,41.58
2022-11-20T07:45:47.727Z,37.22
2022-11-20T07:50:49.103Z,40.35
2022-11-20T07:55:53.257Z,43.65
2022-11-20T08:00:54.719Z,48.80
2022-11-20T08:06:00.291Z,53.10
2022-11-20T08:11:20.497Z,43.22
2022-11-20T08:16:22.661Z,42.20
2022-11-20T08:21:24.806Z,45.88
2022-11-20T08:26:27.127Z,41.83
2022-11-20T08:31:28.914Z,40.17
2022-11-20T08:36:34.197Z,44.03
2022-11-20T08:41:37.613Z,45.38
2022-11-20T08:46:41.922Z,50.17
2022-11-20T08:51:43.360Z,46.47
2022-11-20T08:56:44.772Z,45.38
2022-11-20T09:01:46.137Z,41.22
2022-11-20T09:06:51.722Z,42.60
2022-11-20T09:11:53.211Z,48.08
2022-11-20T09:16:54.554Z,41.20
2022-11-20T09:21:59.706Z,37.58
2022-11-20T09:27:05.808Z,39.00
2022-11-20T09:32:07.271Z,43.85
2022-11-20T09:37:08.677Z,39.50
2022-11-20T09:42:38.340Z,47.45
2022-11-20T09:48:04.517Z,39.97
2022-11-20T09:53:20.812Z,39.53
2022-11-20T09:58:46.570Z,37.60
2022-11-20T10:03:56.652Z,32.85
2022-11-20T10:09:07.138Z,36.58
2022-11-20T10:14:24.838Z,35.92
2022-11-20T10:19:38.243Z,36.00
2022-11-20T10:24:52.698Z,33.25
2022-11-20T10:30:14.286Z,38.95
2022-11-20T10:35:34.421Z,35.15
2022-11-20T10:40:45.150Z,37.33
2022-11-20T10:46:06.026Z,35.30
2022-11-20T10:51:30.088Z,36.28
2022-11-20T10:56:49.884Z,38.30
2022-11-20T11:01:51.682Z,42.33
2022-11-20T11:06:59.617Z,38.05
2022-11-20T11:12:05.858Z,35.67
2022-11-20T11:17:21.568Z,35.13
2022-11-20T11:22:23.019Z,33.05
2022-11-20T11:27:24.453Z,31.38
2022-11-20T11:32:27.430Z,39.15
2022-11-20T11:37:35.694Z,38.13
2022-11-20T11:42:44.212Z,34.92
2022-11-20T11:47:52.470Z,36.03
2022-11-20T11:53:02.806Z,31.10
2022-11-20T11:58:17.327Z,33.97
2022-11-20T12:03:25.723Z,33.65
2022-11-20T12:08:49.262Z,35.80
2022-11-20T12:13:59.300Z,33.53
2022-11-20T12:19:00.747Z,37.03
2022-11-20T12:24:21.421Z,32.15
2022-11-20T12:29:22.917Z,37.15
2022-11-20T12:34:56.862Z,40.13
2022-11-20T12:40:16.922Z,35.83
2022-11-20T12:45:55.100Z,39.33
2022-11-20T12:51:22.040Z,37.22
2022-11-20T12:56:26.249Z,32.60
2022-11-20T13:01:41.783Z,38.90
2022-11-20T13:06:44.979Z,36.80
2022-11-20T13:11:52.770Z,41.75
2022-11-20T13:17:14.217Z,37.90
2022-11-20T13:22:44.050Z,41.03
2022-11-20T13:27:49.938Z,38.67
2022-11-20T13:32:58.396Z,47.60
2022-11-20T13:38:01.877Z,42.53
2022-11-20T13:43:23.832Z,38.33
2022-11-20T13:48:30.156Z,39.53
2022-11-20T13:53:54.475Z,41.83
2022-11-20T13:59:05.685Z,43.15
2022-11-20T14:04:10.294Z,44.30
2022-11-20T14:09:14.052Z,42.40
2022-11-20T14:14:20.122Z,39.78
2022-11-20T14:19:21.482Z,43.22
2022-11-20T14:24:25.425Z,47.13
2022-11-20T14:29:35.370Z,45.17
2022-11-20T14:34:41.573Z,44.42
2022-11-20T14:39:48.693Z,46.75
2022-11-20T14:44:51.790Z,49.35
2022-11-20T14:49:55.777Z,50.60
2022-11-20T14:55:02.061Z,49.40
2022-11-20T15:00:15.421Z,52.20
2022-11-20T15:05:19.057Z,49.10
2022-11-20T15:10:26.043Z,54.15
2022-11-20T15:15:44.993Z,55.78
2022-11-20T15:20:47.021Z,55.03
2022-11-20T15:25:49.474Z,49.65
2022-11-20T15:30:51.234Z,44.13
2022-11-20T15:35:52.605Z,47.17
2022-11-20T15:40:53.974Z,48.53
2022-11-20T15:46:00.236Z,55.53
2022-11-20T15:51:22.267Z,53.33
2022-11-20T15:56:24.279Z,51.53
2022-11-20T16:01:25.681Z,53.40
2022-11-20T16:06:27.076Z,51.30
2022-11-20T16:11:28.417Z,53.85
2022-11-20T16:16:33.380Z,56.03
2022-11-20T16:21:35.711Z,48.78
2022-11-20T16:26:37.820Z,57.05
2022-11-20T16:31:40.159Z,47.97
2022-11-20T16:36:43.055Z,50.30
2022-11-20T16:41:44.415Z,39.50
2022-11-20T16:46:45.764Z,52.50
2022-11-20T16:51:47.120Z,46.80
2022-11-20T16:56:48.638Z,46.90
2022-11-20T17:01:50.595Z,49.15
2022-11-20T17:06:52.035Z,51.80
2022-11-20T17:11:53.460Z,35.78
2022-11-20T17:16:54.831Z,40.70
2022-11-20T17:21:56.183Z,47.80
2022-11-20T17:26:57.607Z,44.95
2022-11-20T17:31:59.065Z,52.83
2022-11-20T17:37:00.447Z,50.72
2022-11-20T17:42:20.856Z,52.85
2022-11-20T17:47:22.452Z,49.35
2022-11-20T17:52:24.028Z,52.60
2022-11-20T17:57:43.944Z,58.72
2022-11-20T18:02:45.620Z,53.63
2022-11-20T18:07:47.102Z,55.00
2022-11-20T18:12:48.624Z,51.60
2022-11-20T18:17:50.137Z,46.72
2022-11-20T18:22:51.485Z,58.42
2022-11-20T18:27:52.899Z,61.03
2022-11-20T18:32:55.400Z,66.15
2022-11-20T18:37:56.890Z,66.78
2022-11-20T18:43:16.677Z,66.88
2022-11-20T18:48:18.058Z,53.88
2022-11-20T18:53:19.457Z,59.75
2022-11-20T18:58:20.802Z,47.35
2022-11-20T19:08:35.731Z,39.13
2022-11-20T19:13:37.834Z,34.58
2022-11-20T19:18:39.837Z,23.20
2022-11-20T19:23:41.512Z,24.52
2022-11-20T19:28:43.285Z,29.55
2022-11-20T19:33:45.367Z,24.80
2022-11-20T19:38:50.231Z,29.95
2022-11-20T19:43:51.813Z,20.20
2022-11-20T19:48:55.181Z,19.92
2022-11-20T19:53:57.752Z,20.17
2022-11-20T19:58:59.420Z,16.15
2022-11-20T20:04:02.621Z,11.23
2022-11-20T20:09:09.933Z,7.80
2022-11-20T20:14:14.790Z,7.53
2022-11-20T20:19:17.541Z,5.13
2022-11-20T20:24:24.983Z,4.68
2022-11-20T20:29:26.817Z,3.97
2022-11-20T20:34:31.340Z,2.95
2022-11-20T20:39:32.832Z,2.25
2022-11-20T20:44:52.832Z,4.45
2022-11-20T20:49:57.383Z,1.33
2022-11-20T20:54:59.050Z,2.13
2022-11-20T21:00:00.875Z,1.52
2022-11-20T21:05:03.856Z,2.45
2022-11-20T21:10:06.486Z,3.80
2022-11-20T21:15:08.434Z,1.08
2022-11-20T21:20:31.530Z,0.98
2022-11-20T21:25:37.212Z,2.78
2022-11-20T21:30:38.689Z,0.70
2022-11-20T21:35:41.350Z,1.02
2022-11-20T21:40:42.882Z,3.83
2022-11-20T21:45:44.301Z,1.63
2022-11-20T21:50:45.659Z,1.55
2022-11-20T21:55:56.853Z,0.70
2022-11-20T22:00:58.303Z,0.90
2022-11-20T22:05:59.881Z,1.85
2022-11-20T22:11:04.081Z,4.45
2022-11-20T22:16:05.791Z,2.03
2022-11-20T22:21:07.405Z,1.33
2022-11-20T22:26:11.181Z,3.17
2022-11-20T22:31:12.523Z,1.45
2022-11-20T22:36:16.813Z,2.65
2022-11-20T22:41:20.657Z,1.58
2022-11-20T22:46:22.842Z,7.43
2022-11-20T22:51:32.775Z,3.83
2022-11-20T22:56:34.915Z,2.53
2022-11-20T23:01:37.172Z,2.97
2022-11-20T23:06:39.102Z,1.50
2022-11-20T23:11:40.522Z,3.30
2022-11-20T23:16:42.212Z,6.18
2022-11-20T23:21:43.770Z,3.38
2022-11-20T23:26:47.168Z,4.72
2022-11-20T23:31:48.645Z,4.68
2022-11-20T23:36:50.094Z,5.25
2022-11-20T23:41:53.943Z,6.07
2022-11-20T23:46:55.508Z,3.88
2022-11-20T23:51:57.514Z,5.65
2022-11-20T23:56:59.041Z,6.75
